createdAt,value
2023-04-07T00:01:23.227Z,20.70
2023-04-07T00:03:51.287Z,20.60
2023-04-07T00:06:20.480Z,20.60
2023-04-07T00:08:48.146Z,20.60
2023-04-07T00:11:15.826Z,20.60
2023-04-07T00:13:43.737Z,20.60
2023-04-07T00:16:11.993Z,20.50
2023-04-07T00:18:39.702Z,20.50
2023-04-07T00:21:07.888Z,20.50
2023-04-07T00:23:37.261Z,20.50
2023-04-07T00:26:05.295Z,20.40
2023-04-07T00:28:33.221Z,20.40
2023-04-07T00:31:01.382Z,20.40
2023-04-07T00:33:29.650Z,20.40
2023-04-07T00:35:58.638Z,20.30
2023-04-07T00:38:26.657Z,20.30
2023-04-07T00:41:00.351Z,20.30
2023-04-07T00:43:28.778Z,20.30
2023-04-07T00:45:56.803Z,20.30
2023-04-07T00:48:24.938Z,20.30
2023-04-07T00:50:52.712Z,20.20
2023-04-07T00:53:20.643Z,20.20
2023-04-07T00:55:48.478Z,20.20
2023-04-07T00:58:17.501Z,20.10
2023-04-07T01:00:49.664Z,20.10
2023-04-07T01:03:20.273Z,20.10
2023-04-07T01:05:51.596Z,20.10
2023-04-07T01:08:23.292Z,20.00
2023-04-07T01:10:52.790Z,20.00
2023-04-07T01:13:25.454Z,20.10
2023-04-07T01:15:56.400Z,20.00
2023-04-07T01:18:25.935Z,20.00
2023-04-07T01:20:53.965Z,20.00
2023-04-07T01:23:24.693Z,19.90
2023-04-07T01:26:01.404Z,19.90
2023-04-07T01:28:47.526Z,19.90
2023-04-07T01:31:16.901Z,19.90
2023-04-07T01:33:45.807Z,19.80
2023-04-07T01:36:13.698Z,19.80
2023-04-07T01:38:41.998Z,19.80
2023-04-07T01:41:09.801Z,19.80
2023-04-07T01:43:38.632Z,19.80
2023-04-07T01:46:06.413Z,19.70
2023-04-07T01:48:35.618Z,19.80
2023-04-07T01:51:04.009Z,19.80
2023-04-07T01:53:31.801Z,19.80
2023-04-07T01:55:59.539Z,19.70
2023-04-07T01:58:27.618Z,19.70
2023-04-07T02:00:55.396Z,19.70
2023-04-07T02:03:25.116Z,19.70
2023-04-07T02:05:57.158Z,19.70
2023-04-07T02:08:25.438Z,19.70
2023-04-07T02:10:53.181Z,19.70
2023-04-07T02:13:22.377Z,19.60
2023-04-07T02:15:50.398Z,19.60
2023-04-07T02:18:18.985Z,19.60
2023-04-07T02:20:46.978Z,19.50
2023-04-07T02:23:16.286Z,19.50
2023-04-07T02:25:44.346Z,19.50
2023-04-07T02:28:12.640Z,19.50
2023-04-07T02:30:41.034Z,19.50
2023-04-07T02:33:09.442Z,19.50
2023-04-07T02:35:37.797Z,19.40
2023-04-07T02:38:05.705Z,19.50
2023-04-07T02:40:36.616Z,19.40
2023-04-07T02:43:05.283Z,19.40
2023-04-07T02:45:33.770Z,19.40
2023-04-07T02:48:01.891Z,19.30
2023-04-07T02:50:30.216Z,19.30
2023-04-07T02:52:58.288Z,19.30
2023-04-07T02:55:26.769Z,19.30
2023-04-07T02:57:56.066Z,19.30
2023-04-07T03:00:23.889Z,19.30
2023-04-07T03:02:51.846Z,19.20
2023-04-07T03:05:19.974Z,19.20
2023-04-07T03:07:48.119Z,19.20
2023-04-07T03:10:15.877Z,19.10
2023-04-07T03:12:44.889Z,19.10
2023-04-07T03:15:16.172Z,19.10
2023-04-07T03:17:44.968Z,19.10
2023-04-07T03:20:13.493Z,19.10
2023-04-07T03:22:41.373Z,19.10
2023-04-07T03:25:09.507Z,19.00
2023-04-07T03:27:37.361Z,19.00
2023-04-07T03:30:06.013Z,19.00
2023-04-07T03:32:36.002Z,19.00
2023-04-07T03:35:04.028Z,19.00
2023-04-07T03:37:31.954Z,19.00
2023-04-07T03:40:00.238Z,18.90
2023-04-07T03:42:28.083Z,18.90
2023-04-07T03:44:55.972Z,18.90
2023-04-07T03:47:23.763Z,18.90
2023-04-07T03:49:53.520Z,18.90
2023-04-07T03:52:21.396Z,18.90
2023-04-07T03:54:49.380Z,18.90
2023-04-07T03:57:17.230Z,18.90
2023-04-07T03:59:45.235Z,18.90
2023-04-07T04:02:13.074Z,18.80
2023-04-07T04:04:41.604Z,18.80
2023-04-07T04:07:10.663Z,18.80
2023-04-07T04:09:38.922Z,18.80
2023-04-07T04:12:06.782Z,18.80
2023-04-07T04:14:34.516Z,18.80
2023-04-07T04:17:02.569Z,18.70
2023-04-07T04:19:33.251Z,18.70
2023-04-07T04:22:00.915Z,18.70
2023-04-07T04:24:30.438Z,18.70
2023-04-07T04:26:58.087Z,18.70
2023-04-07T04:29:25.988Z,18.70
2023-04-07T04:31:53.721Z,18.70
2023-04-07T04:34:21.702Z,18.70
2023-04-07T04:36:49.520Z,18.60
2023-04-07T04:39:17.606Z,18.60
2023-04-07T04:41:46.682Z,18.50
2023-04-07T04:44:14.723Z,18.50
2023-04-07T04:46:42.847Z,18.50
2023-04-07T04:49:10.572Z,18.50
2023-04-07T04:51:38.682Z,18.50
2023-04-07T04:54:06.801Z,18.40
2023-04-07T04:56:34.933Z,18.40
2023-04-07T04:59:03.994Z,18.40
2023-04-07T05:01:33.329Z,18.30
2023-04-07T05:04:01.685Z,18.30
2023-04-07T05:06:29.514Z,18.40
2023-04-07T05:08:57.444Z,18.40
2023-04-07T05:11:25.127Z,18.40
2023-04-07T05:13:53.101Z,18.40
2023-04-07T05:16:22.911Z,18.40
2023-04-07T05:18:50.691Z,18.40
2023-04-07T05:21:20.144Z,18.40
2023-04-07T05:23:48.344Z,18.40
2023-04-07T05:26:16.273Z,18.30
2023-04-07T05:28:44.884Z,18.40
2023-04-07T05:31:12.870Z,18.30
2023-04-07T05:33:42.494Z,18.30
2023-04-07T05:36:11.446Z,18.30
2023-04-07T05:38:39.294Z,18.30
2023-04-07T05:41:07.669Z,18.30
2023-04-07T05:43:35.558Z,18.30
2023-04-07T05:46:03.934Z,18.30
2023-04-07T05:48:31.863Z,18.30
2023-04-07T05:51:01.647Z,18.20
2023-04-07T05:53:29.460Z,18.20
2023-04-07T05:55:57.706Z,18.20
2023-04-07T05:58:25.558Z,18.20
2023-04-07T06:00:53.415Z,18.20
2023-04-07T06:03:21.412Z,18.30
2023-04-07T06:05:49.389Z,18.30
2023-04-07T06:08:18.663Z,18.20
2023-04-07T06:10:46.724Z,18.30
2023-04-07T06:13:15.173Z,18.30
2023-04-07T06:15:42.887Z,18.30
2023-04-07T06:18:10.688Z,18.30
2023-04-07T06:20:38.535Z,18.30
2023-04-07T06:23:06.700Z,18.30
2023-04-07T06:25:36.602Z,18.30
2023-04-07T06:28:04.520Z,18.30
2023-04-07T06:30:32.451Z,18.30
2023-04-07T06:33:01.310Z,18.40
2023-04-07T06:35:29.692Z,18.40
2023-04-07T06:37:58.112Z,18.40
2023-04-07T06:40:26.356Z,18.40
2023-04-07T06:42:56.627Z,18.50
2023-04-07T06:45:25.014Z,18.50
2023-04-07T06:47:53.026Z,18.60
2023-04-07T06:50:22.616Z,18.60
2023-04-07T06:52:50.489Z,18.60
2023-04-07T06:55:18.754Z,18.60
2023-04-07T06:57:46.711Z,18.60
2023-04-07T07:00:16.942Z,18.70
2023-04-07T07:02:45.307Z,18.70
2023-04-07T07:05:13.095Z,18.80
2023-04-07T07:07:40.775Z,18.80
2023-04-07T07:10:10.274Z,18.90
2023-04-07T07:12:37.944Z,18.90
2023-04-07T07:15:06.714Z,18.90
2023-04-07T07:17:36.089Z,19.00
2023-04-07T07:20:04.131Z,19.00
2023-04-07T07:22:32.025Z,19.00
2023-04-07T07:24:59.953Z,19.10
2023-04-07T07:27:27.805Z,19.10
2023-04-07T07:29:56.046Z,19.20
2023-04-07T07:32:24.329Z,19.30
2023-04-07T07:34:53.333Z,19.30
2023-04-07T07:37:21.026Z,19.30
2023-04-07T07:39:49.326Z,19.40
2023-04-07T07:42:17.157Z,19.40
2023-04-07T07:44:44.939Z,19.50
2023-04-07T07:47:12.679Z,19.50
2023-04-07T07:49:41.716Z,19.60
2023-04-07T07:52:10.928Z,19.70
2023-04-07T07:54:38.597Z,19.80
2023-04-07T07:57:06.365Z,19.90
2023-04-07T07:59:34.090Z,20.00
2023-04-07T08:02:01.793Z,20.10
2023-04-07T08:04:30.240Z,20.20
2023-04-07T08:06:58.419Z,20.30
2023-04-07T08:09:27.742Z,20.40
2023-04-07T08:11:55.667Z,20.60
2023-04-07T08:14:23.945Z,20.70
2023-04-07T08:16:51.771Z,20.90
2023-04-07T08:19:20.089Z,21.00
2023-04-07T08:21:47.931Z,21.10
2023-04-07T08:24:15.998Z,21.30
2023-04-07T08:26:46.158Z,21.50
2023-04-07T08:29:14.525Z,21.70
2023-04-07T08:31:42.490Z,21.90
2023-04-07T08:34:10.446Z,22.00
2023-04-07T08:36:41.516Z,22.20
2023-04-07T08:39:10.927Z,22.40
2023-04-07T08:41:39.426Z,22.60
2023-04-07T08:44:09.760Z,22.80
2023-04-07T08:46:37.765Z,23.00
2023-04-07T08:49:05.653Z,23.10
2023-04-07T08:51:34.004Z,23.40
2023-04-07T08:54:06.185Z,23.50
2023-04-07T08:56:34.350Z,23.70
2023-04-07T08:59:02.764Z,23.90
2023-04-07T09:01:32.142Z,24.10
2023-04-07T09:04:00.006Z,24.30
2023-04-07T09:06:27.824Z,24.50
2023-04-07T09:08:55.943Z,24.60
2023-04-07T09:11:24.115Z,24.80
2023-04-07T09:13:51.902Z,25.00
2023-04-07T09:16:20.175Z,25.20
2023-04-07T09:18:49.453Z,25.30
2023-04-07T09:21:17.319Z,25.50
2023-04-07T09:23:45.500Z,25.70
2023-04-07T09:26:24.426Z,25.90
2023-04-07T09:28:54.648Z,26.10
2023-04-07T09:31:22.760Z,26.30
2023-04-07T09:33:53.211Z,26.50
2023-04-07T09:36:21.069Z,26.70
2023-04-07T09:38:49.239Z,26.90
2023-04-07T09:41:17.828Z,27.10
2023-04-07T09:43:47.165Z,27.30
2023-04-07T09:46:15.664Z,27.50
2023-04-07T09:48:45.377Z,27.70
2023-04-07T09:51:15.497Z,27.80
2023-04-07T09:53:48.774Z,28.00
2023-04-07T09:56:17.658Z,28.20
2023-04-07T09:58:46.149Z,28.40
2023-04-07T10:01:14.776Z,28.60
2023-04-07T10:03:43.215Z,28.80
2023-04-07T10:06:11.842Z,28.90
2023-04-07T10:08:42.964Z,29.20
2023-04-07T10:11:11.024Z,29.30
2023-04-07T10:13:40.803Z,29.50
2023-04-07T10:16:08.992Z,29.70
2023-04-07T10:18:37.956Z,29.90
2023-04-07T10:21:07.996Z,30.10
2023-04-07T10:23:49.631Z,30.30
2023-04-07T10:26:19.253Z,30.50
2023-04-07T10:28:49.130Z,28.50
2023-04-07T10:31:17.132Z,27.00
2023-04-07T10:33:49.763Z,26.40
2023-04-07T10:36:19.001Z,25.40
2023-04-07T10:39:23.627Z,25.10
2023-04-07T10:41:52.339Z,24.60
2023-04-07T10:44:49.910Z,24.70
2023-04-07T10:47:18.839Z,24.20
2023-04-07T10:50:17.848Z,24.40
2023-04-07T10:52:46.600Z,23.90
2023-04-07T10:55:35.355Z,23.40
2023-04-07T10:58:23.082Z,23.40
2023-04-07T11:01:22.684Z,23.40
2023-04-07T11:04:04.805Z,23.20
2023-04-07T11:06:33.017Z,23.90
2023-04-07T11:09:00.959Z,24.00
2023-04-07T11:11:41.604Z,24.30
2023-04-07T11:14:09.538Z,23.80
2023-04-07T11:16:38.917Z,23.30
2023-04-07T11:19:06.882Z,23.70
2023-04-07T11:21:35.049Z,24.20
2023-04-07T11:24:02.960Z,25.10
2023-04-07T11:26:31.832Z,25.90
2023-04-07T11:29:01.443Z,27.20
2023-04-07T11:31:31.488Z,28.20
2023-04-07T11:34:01.028Z,29.20
2023-04-07T11:36:29.754Z,30.00
2023-04-07T11:38:57.847Z,30.70
2023-04-07T11:41:26.385Z,31.90
2023-04-07T11:44:08.513Z,31.90
2023-04-07T11:46:37.294Z,32.80
2023-04-07T11:49:15.612Z,32.90
2023-04-07T11:51:44.786Z,32.30
2023-04-07T11:54:12.645Z,33.30
2023-04-07T11:56:45.285Z,34.40
2023-04-07T11:59:23.223Z,33.80
2023-04-07T12:01:51.625Z,34.30
2023-04-07T12:04:19.856Z,35.30
2023-04-07T12:06:48.780Z,35.70
2023-04-07T12:09:30.085Z,35.50
2023-04-07T12:11:58.760Z,36.20
2023-04-07T12:14:28.745Z,37.00
2023-04-07T12:16:58.452Z,37.00
2023-04-07T12:19:27.166Z,36.80
2023-04-07T12:21:55.416Z,36.50
2023-04-07T12:24:23.677Z,37.20
2023-04-07T12:26:52.017Z,36.60
2023-04-07T12:29:20.862Z,36.90
2023-04-07T12:31:51.221Z,37.30
2023-04-07T12:34:19.593Z,36.50
2023-04-07T12:36:48.004Z,36.60
2023-04-07T12:39:16.553Z,38.00
2023-04-07T12:41:47.523Z,39.00
2023-04-07T12:44:15.544Z,39.50
2023-04-07T12:46:43.889Z,40.10
2023-04-07T12:49:12.913Z,40.50
2023-04-07T12:51:40.985Z,40.80
2023-04-07T12:54:08.903Z,41.00
2023-04-07T12:56:37.461Z,41.30
2023-04-07T12:59:05.889Z,41.30
2023-04-07T13:01:35.347Z,41.50
2023-04-07T13:04:03.808Z,41.50
2023-04-07T13:06:33.920Z,41.50
2023-04-07T13:09:01.598Z,41.50
2023-04-07T13:11:29.830Z,41.50
2023-04-07T13:13:59.814Z,41.50
2023-04-07T13:16:29.046Z,41.40
2023-04-07T13:18:57.617Z,41.50
2023-04-07T13:23:57.836Z,41.40
2023-04-07T13:26:26.491Z,41.10
2023-04-07T13:28:54.177Z,41.00
2023-04-07T13:31:24.013Z,40.70
2023-04-07T13:33:51.724Z,39.80
2023-04-07T13:36:21.782Z,39.10
2023-04-07T13:38:51.168Z,38.40
2023-04-07T13:41:20.204Z,37.50
2023-04-07T13:43:48.873Z,36.70
2023-04-07T13:46:27.377Z,36.00
2023-04-07T13:48:56.450Z,35.50
2023-04-07T13:51:24.838Z,34.90
2023-04-07T13:53:53.245Z,34.90
2023-04-07T13:56:23.757Z,35.20
2023-04-07T13:58:52.465Z,35.30
2023-04-07T14:01:20.455Z,35.60
2023-04-07T14:03:50.250Z,36.00
2023-04-07T14:06:18.473Z,36.20
2023-04-07T14:08:46.388Z,36.50
2023-04-07T14:11:17.289Z,36.70
2023-04-07T14:13:46.917Z,37.00
2023-04-07T14:16:15.354Z,37.10
2023-04-07T14:18:43.356Z,37.40
2023-04-07T14:21:11.217Z,37.70
2023-04-07T14:23:39.426Z,37.70
2023-04-07T14:26:10.143Z,37.80
2023-04-07T14:28:37.801Z,37.90
2023-04-07T14:31:07.693Z,37.90
2023-04-07T14:33:35.424Z,37.80
2023-04-07T14:36:03.151Z,37.90
2023-04-07T14:38:32.351Z,37.80
2023-04-07T14:43:34.147Z,37.40
2023-04-07T14:46:02.452Z,37.20
2023-04-07T14:48:32.573Z,37.10
2023-04-07T14:51:09.219Z,36.50
2023-04-07T14:53:37.913Z,35.80
2023-04-07T14:56:06.101Z,35.00
2023-04-07T14:58:34.150Z,34.40
2023-04-07T15:01:03.406Z,33.90
2023-04-07T15:03:36.751Z,33.60
2023-04-07T15:06:08.632Z,33.60
2023-04-07T15:08:36.931Z,33.60
2023-04-07T15:11:05.746Z,33.60
2023-04-07T15:13:33.574Z,33.60
2023-04-07T15:16:08.338Z,33.70
2023-04-07T15:18:38.941Z,33.70
2023-04-07T15:21:06.805Z,33.70
2023-04-07T15:23:35.138Z,33.70
2023-04-07T15:26:02.992Z,33.60
2023-04-07T15:28:31.366Z,33.00
2023-04-07T15:30:59.741Z,32.50
2023-04-07T15:33:28.113Z,31.90
2023-04-07T15:35:57.432Z,31.40
2023-04-07T15:38:25.387Z,30.90
2023-04-07T15:40:53.936Z,30.40
2023-04-07T15:43:21.902Z,30.00
2023-04-07T15:45:49.909Z,29.60
2023-04-07T15:48:18.728Z,29.30
2023-04-07T15:50:46.639Z,29.10
2023-04-07T15:53:15.968Z,28.80
2023-04-07T15:55:44.745Z,28.60
2023-04-07T15:58:12.590Z,28.50
2023-04-07T16:00:41.029Z,28.40
2023-04-07T16:03:09.004Z,28.20
2023-04-07T16:05:38.493Z,28.10
2023-04-07T16:08:06.741Z,28.00
2023-04-07T16:10:36.466Z,27.90
2023-04-07T16:13:04.334Z,27.80
2023-04-07T16:15:40.120Z,27.70
2023-04-07T16:18:10.157Z,27.60
2023-04-07T16:20:37.832Z,27.60
2023-04-07T16:23:05.626Z,27.50
2023-04-07T16:25:35.178Z,27.50
2023-04-07T16:28:03.107Z,27.40
2023-04-07T16:30:31.682Z,27.30
2023-04-07T16:33:00.227Z,27.20
2023-04-07T16:35:29.248Z,27.20
2023-04-07T16:38:01.633Z,27.10
2023-04-07T16:40:29.484Z,27.10
2023-04-07T16:42:58.929Z,27.00
2023-04-07T16:45:27.268Z,27.00
2023-04-07T16:47:55.667Z,27.00
2023-04-07T16:50:23.729Z,27.00
2023-04-07T16:52:51.691Z,26.90
2023-04-07T16:55:19.755Z,26.90
2023-04-07T16:57:48.305Z,26.80
2023-04-07T17:00:17.721Z,26.80
2023-04-07T17:02:45.586Z,26.70
2023-04-07T17:05:13.322Z,26.70
2023-04-07T17:07:41.052Z,26.70
2023-04-07T17:10:09.700Z,26.60
2023-04-07T17:12:37.741Z,26.60
2023-04-07T17:15:05.985Z,26.60
2023-04-07T17:17:35.063Z,26.60
2023-04-07T17:20:03.477Z,26.60
2023-04-07T17:22:31.495Z,26.50
2023-04-07T17:24:59.168Z,26.50
2023-04-07T17:27:26.834Z,26.50
2023-04-07T17:29:54.956Z,26.40
2023-04-07T17:32:23.285Z,26.40
2023-04-07T17:34:52.746Z,26.40
2023-04-07T17:37:20.462Z,26.40
2023-04-07T17:39:48.164Z,26.40
2023-04-07T17:42:15.808Z,26.30
2023-04-07T17:44:43.880Z,26.30
2023-04-07T17:47:12.331Z,26.30
2023-04-07T17:49:40.458Z,26.20
2023-04-07T17:52:09.889Z,26.20
2023-04-07T17:54:37.746Z,26.20
2023-04-07T17:57:06.273Z,26.20
2023-04-07T17:59:34.684Z,26.10
2023-04-07T18:02:08.733Z,26.10
2023-04-07T18:04:37.602Z,26.10
2023-04-07T18:07:05.596Z,26.00
2023-04-07T18:09:35.472Z,26.00
2023-04-07T18:12:04.198Z,25.90
2023-04-07T18:14:32.129Z,25.90
2023-04-07T18:16:59.900Z,25.90
2023-04-07T18:19:29.826Z,25.90
2023-04-07T18:21:58.035Z,25.80
2023-04-07T18:24:25.923Z,25.80
2023-04-07T18:26:54.938Z,25.80
2023-04-07T18:29:23.225Z,25.80
2023-04-07T18:31:51.308Z,25.70
2023-04-07T18:34:19.361Z,25.70
2023-04-07T18:36:47.610Z,25.70
2023-04-07T18:39:15.669Z,25.60
2023-04-07T18:41:45.064Z,25.60
2023-04-07T18:44:14.492Z,25.60
2023-04-07T18:46:42.395Z,25.50
2023-04-07T18:49:10.808Z,25.40
2023-04-07T18:51:38.982Z,25.30
2023-04-07T18:54:06.858Z,25.20
2023-04-07T18:56:35.158Z,25.10
2023-04-07T18:59:03.928Z,25.00
2023-04-07T19:01:33.382Z,24.90
2023-04-07T19:04:01.642Z,24.80
2023-04-07T19:06:30.480Z,24.70
2023-04-07T19:08:58.379Z,24.60
2023-04-07T19:11:27.039Z,24.60
2023-04-07T19:13:56.393Z,24.50
2023-04-07T19:16:24.823Z,24.40
2023-04-07T19:18:54.344Z,24.40
2023-04-07T19:21:22.212Z,24.30
2023-04-07T19:23:50.353Z,24.20
2023-04-07T19:26:18.470Z,24.20
2023-04-07T19:28:46.423Z,24.10
2023-04-07T19:31:14.611Z,24.00
2023-04-07T19:33:43.204Z,23.90
2023-04-07T19:36:12.235Z,23.90
2023-04-07T19:38:40.484Z,23.80
2023-04-07T19:41:08.305Z,23.80
2023-04-07T19:43:36.218Z,23.80
2023-04-07T19:46:04.927Z,23.70
2023-04-07T19:48:33.405Z,23.70
2023-04-07T19:51:02.030Z,23.60
2023-04-07T19:53:31.322Z,23.50
2023-04-07T19:55:59.208Z,23.50
2023-04-07T19:58:27.047Z,23.50
2023-04-07T20:00:55.171Z,23.40
2023-04-07T20:03:23.507Z,23.40
2023-04-07T20:05:53.190Z,23.30
2023-04-07T20:08:21.407Z,23.20
2023-04-07T20:10:51.497Z,23.20
2023-04-07T20:13:20.378Z,23.20
2023-04-07T20:15:49.214Z,23.10
2023-04-07T20:18:18.965Z,23.10
2023-04-07T20:20:46.993Z,23.00
2023-04-07T20:23:16.590Z,23.00
2023-04-07T20:25:44.438Z,22.90
2023-04-07T20:28:13.704Z,22.90
2023-04-07T20:30:41.750Z,22.90
2023-04-07T20:33:09.637Z,22.80
2023-04-07T20:35:38.003Z,22.80
2023-04-07T20:38:05.684Z,22.70
2023-04-07T20:40:35.919Z,22.70
2023-04-07T20:43:03.913Z,22.70
2023-04-07T20:45:33.766Z,22.60
2023-04-07T20:48:01.651Z,22.60
2023-04-07T20:50:29.935Z,22.60
2023-04-07T20:52:58.276Z,22.50
2023-04-07T20:55:26.174Z,22.50
2023-04-07T20:57:54.698Z,22.40
2023-04-07T21:00:22.788Z,22.40
2023-04-07T21:02:52.301Z,22.40
2023-04-07T21:05:20.803Z,22.30
2023-04-07T21:07:48.771Z,22.30
2023-04-07T21:10:17.065Z,22.30
2023-04-07T21:12:44.881Z,22.20
2023-04-07T21:15:13.198Z,22.20
2023-04-07T21:17:41.083Z,22.10
2023-04-07T21:20:11.567Z,22.10
2023-04-07T21:22:39.655Z,22.00
2023-04-07T21:25:08.619Z,22.00
2023-04-07T21:27:38.226Z,22.00
2023-04-07T21:30:06.882Z,21.90
2023-04-07T21:32:34.850Z,21.90
2023-04-07T21:35:02.743Z,21.80
2023-04-07T21:37:32.012Z,21.80
2023-04-07T21:39:59.746Z,21.80
2023-04-07T21:42:27.661Z,21.70
2023-04-07T21:44:55.790Z,21.70
2023-04-07T21:47:23.701Z,21.70
2023-04-07T21:49:51.638Z,21.70
2023-04-07T21:52:19.796Z,21.60
2023-04-07T21:54:49.213Z,21.60
2023-04-07T21:57:17.522Z,21.50
2023-04-07T21:59:45.516Z,21.50
2023-04-07T22:02:13.628Z,21.50
2023-04-07T22:04:41.992Z,21.40
2023-04-07T22:07:10.437Z,21.40
2023-04-07T22:09:38.281Z,21.40
2023-04-07T22:12:07.630Z,21.30
2023-04-07T22:14:35.552Z,21.30
2023-04-07T22:17:03.835Z,21.30
2023-04-07T22:19:31.813Z,21.20
2023-04-07T22:21:59.743Z,21.20
2023-04-07T22:24:27.962Z,21.20
2023-04-07T22:26:57.284Z,21.20
2023-04-07T22:29:27.677Z,21.10
2023-04-07T22:31:55.645Z,21.10
2023-04-07T22:34:23.819Z,21.10
2023-04-07T22:36:51.785Z,21.00
2023-04-07T22:39:19.666Z,21.00
2023-04-07T22:41:47.641Z,21.00
2023-04-07T22:44:15.523Z,21.00
2023-04-07T22:46:44.872Z,20.90
2023-04-07T22:49:12.803Z,20.90
2023-04-07T22:51:41.076Z,20.90
2023-04-07T22:54:08.966Z,20.80
2023-04-07T22:56:36.860Z,20.80
2023-04-07T22:59:06.062Z,20.80
2023-04-07T23:01:34.125Z,20.80
2023-04-07T23:04:03.462Z,20.70
2023-04-07T23:06:32.132Z,20.70
2023-04-07T23:09:00.132Z,20.60
2023-04-07T23:11:28.112Z,20.60
2023-04-07T23:13:56.367Z,20.60
2023-04-07T23:16:24.390Z,20.60
2023-04-07T23:18:52.396Z,20.60
2023-04-07T23:21:21.924Z,20.50
2023-04-07T23:23:50.440Z,20.50
2023-04-07T23:26:18.144Z,20.50
2023-04-07T23:28:46.202Z,20.50
2023-04-07T23:31:13.904Z,20.40
2023-04-07T23:33:41.585Z,20.40
2023-04-07T23:36:09.273Z,20.40
2023-04-07T23:38:39.501Z,20.40
2023-04-07T23:41:07.960Z,20.30
2023-04-07T23:43:36.281Z,20.40
2023-04-07T23:46:04.007Z,20.40
2023-04-07T23:48:32.371Z,20.30
2023-04-07T23:51:00.685Z,20.30
2023-04-07T23:53:28.352Z,20.30
2023-04-07T23:55:57.389Z,20.30
2023-04-07T23:58:25.051Z,20.30
